createdAt,value
2023-02-21T00:02:20.345Z,1.78
2023-02-21T00:05:40.563Z,1.77
2023-02-21T00:09:00.793Z,1.76
2023-02-21T00:12:20.731Z,1.62
2023-02-21T00:15:40.994Z,1.63
2023-02-21T00:19:00.868Z,1.64
2023-02-21T00:22:20.667Z,1.63
2023-02-21T00:25:40.556Z,1.70
2023-02-21T00:29:00.484Z,1.72
2023-02-21T00:32:20.570Z,1.67
2023-02-21T00:35:40.640Z,1.67
2023-02-21T00:39:00.389Z,1.69
2023-02-21T00:42:20.782Z,1.67
2023-02-21T00:45:40.609Z,1.68
2023-02-21T00:49:00.656Z,1.61
2023-02-21T00:52:20.576Z,1.43
2023-02-21T00:55:40.507Z,1.41
2023-02-21T00:59:00.425Z,1.38
2023-02-21T01:02:20.654Z,1.39
2023-02-21T01:05:40.901Z,1.40
2023-02-21T01:09:05.420Z,1.33
2023-02-21T01:12:25.421Z,1.35
2023-02-21T01:15:45.375Z,1.23
2023-02-21T01:19:07.755Z,1.26
2023-02-21T01:22:27.938Z,1.35
2023-02-21T01:25:48.220Z,1.41
2023-02-21T01:29:08.170Z,1.39
2023-02-21T01:32:28.466Z,1.28
2023-02-21T01:35:48.580Z,1.22
2023-02-21T01:39:08.945Z,1.19
2023-02-21T01:42:29.944Z,1.12
2023-02-21T01:46:02.281Z,1.12
2023-02-21T01:49:31.569Z,1.08
2023-02-21T01:52:52.085Z,1.05
2023-02-21T01:56:14.589Z,1.05
2023-02-21T01:59:38.862Z,1.01
2023-02-21T02:03:10.850Z,1.04
2023-02-21T02:06:35.281Z,1.05
2023-02-21T02:09:55.458Z,1.08
2023-02-21T02:13:08.801Z,1.08
2023-02-21T02:16:20.934Z,1.08
2023-02-21T02:19:54.005Z,1.07
2023-02-21T02:23:16.658Z,1.06
2023-02-21T02:26:47.354Z,0.98
2023-02-21T02:30:08.027Z,0.96
2023-02-21T02:33:29.355Z,1.08
2023-02-21T02:36:39.706Z,1.17
2023-02-21T02:40:02.662Z,1.14
2023-02-21T02:43:30.820Z,1.12
2023-02-21T02:46:37.821Z,1.08
2023-02-21T02:49:43.289Z,1.04
2023-02-21T02:52:53.730Z,0.98
2023-02-21T02:56:00.738Z,0.98
2023-02-21T02:59:08.917Z,0.87
2023-02-21T03:02:16.502Z,0.77
2023-02-21T03:05:36.294Z,0.66
2023-02-21T03:09:09.094Z,0.67
2023-02-21T03:12:16.739Z,0.66
2023-02-21T03:15:27.374Z,0.70
2023-02-21T03:18:37.789Z,0.72
2023-02-21T03:21:46.892Z,0.69
2023-02-21T03:24:50.676Z,0.71
2023-02-21T03:27:55.277Z,0.68
2023-02-21T03:31:04.597Z,0.61
2023-02-21T03:34:06.770Z,0.67
2023-02-21T03:37:11.413Z,0.67
2023-02-21T03:40:17.456Z,0.73
2023-02-21T03:43:23.110Z,0.73
2023-02-21T03:46:30.974Z,0.74
2023-02-21T03:49:32.722Z,0.80
2023-02-21T03:52:34.554Z,0.84
2023-02-21T03:55:36.459Z,0.84
2023-02-21T03:58:42.667Z,0.85
2023-02-21T04:01:44.519Z,0.88
2023-02-21T04:04:48.488Z,0.82
2023-02-21T04:07:52.385Z,0.80
2023-02-21T04:10:53.844Z,0.75
2023-02-21T04:13:57.777Z,0.79
2023-02-21T04:16:59.224Z,0.85
2023-02-21T04:20:01.329Z,0.86
2023-02-21T04:23:03.951Z,0.92
2023-02-21T04:26:06.883Z,0.80
2023-02-21T04:29:15.761Z,0.71
2023-02-21T04:32:17.704Z,0.61
2023-02-21T04:35:19.521Z,0.58
2023-02-21T04:38:21.858Z,0.64
2023-02-21T04:41:23.608Z,0.69
2023-02-21T04:44:25.193Z,0.72
2023-02-21T04:47:26.702Z,0.74
2023-02-21T04:50:28.727Z,0.70
2023-02-21T04:53:30.174Z,0.57
2023-02-21T04:56:32.647Z,0.56
2023-02-21T04:59:34.113Z,0.65
2023-02-21T05:02:35.740Z,0.74
2023-02-21T05:05:37.312Z,0.74
2023-02-21T05:08:38.766Z,0.79
2023-02-21T05:11:41.305Z,0.71
2023-02-21T05:14:43.136Z,0.68
2023-02-21T05:17:46.272Z,0.60
2023-02-21T05:20:48.089Z,0.54
2023-02-21T05:23:58.244Z,0.52
2023-02-21T05:26:59.798Z,0.50
2023-02-21T05:30:01.414Z,0.52
2023-02-21T05:33:02.981Z,0.51
2023-02-21T05:36:04.843Z,0.51
2023-02-21T05:39:07.863Z,0.49
2023-02-21T05:42:09.718Z,0.51
2023-02-21T05:45:11.580Z,0.47
2023-02-21T05:48:13.070Z,0.47
2023-02-21T05:51:15.994Z,0.48
2023-02-21T05:54:20.439Z,0.49
2023-02-21T05:57:22.045Z,0.52
2023-02-21T06:00:28.969Z,0.55
2023-02-21T06:03:30.680Z,0.48
2023-02-21T06:06:32.204Z,0.46
2023-02-21T06:09:33.976Z,0.46
2023-02-21T06:12:36.350Z,0.41
2023-02-21T06:15:37.802Z,0.33
2023-02-21T06:18:39.617Z,0.29
2023-02-21T06:21:42.021Z,0.33
2023-02-21T06:24:43.892Z,0.38
2023-02-21T06:27:45.418Z,0.36
2023-02-21T06:30:46.950Z,0.30
2023-02-21T06:33:50.021Z,0.36
2023-02-21T06:36:52.973Z,0.44
2023-02-21T06:39:54.866Z,0.52
2023-02-21T06:42:56.361Z,0.57
2023-02-21T06:45:57.905Z,0.58
2023-02-21T06:48:59.636Z,0.63
2023-02-21T06:52:01.345Z,0.65
2023-02-21T06:55:02.866Z,0.64
2023-02-21T06:58:05.172Z,0.70
2023-02-21T07:01:06.688Z,0.69
2023-02-21T07:04:08.112Z,0.68
2023-02-21T07:07:09.560Z,0.73
2023-02-21T07:10:11.571Z,0.72
2023-02-21T07:13:13.000Z,0.88
2023-02-21T07:16:14.515Z,1.08
2023-02-21T07:22:19.014Z,1.33
2023-02-21T07:25:22.240Z,1.48
2023-02-21T07:28:23.794Z,1.69
2023-02-21T07:31:25.344Z,1.87
2023-02-21T07:34:26.878Z,2.02
2023-02-21T07:37:28.418Z,2.08
2023-02-21T07:40:29.934Z,2.19
2023-02-21T07:43:32.544Z,2.28
2023-02-21T07:46:34.822Z,2.38
2023-02-21T07:49:41.332Z,2.50
2023-02-21T07:52:42.928Z,2.63
2023-02-21T07:55:44.482Z,2.79
2023-02-21T07:58:45.943Z,2.99
2023-02-21T08:01:47.884Z,3.16
2023-02-21T08:04:52.816Z,3.38
2023-02-21T08:07:56.095Z,3.53
2023-02-21T08:10:57.694Z,3.62
2023-02-21T08:13:59.819Z,3.71
2023-02-21T08:17:01.312Z,3.91
2023-02-21T08:20:04.708Z,4.04
2023-02-21T08:23:06.129Z,4.23
2023-02-21T08:26:07.664Z,4.44
2023-02-21T08:29:09.267Z,4.55
2023-02-21T08:32:11.078Z,4.62
2023-02-21T08:35:15.328Z,4.69
2023-02-21T08:38:18.531Z,4.90
2023-02-21T08:41:20.039Z,5.12
2023-02-21T08:44:21.835Z,5.27
2023-02-21T08:47:23.406Z,5.37
2023-02-21T08:50:28.341Z,5.61
2023-02-21T08:53:29.878Z,5.83
2023-02-21T08:56:31.810Z,6.00
2023-02-21T08:59:34.863Z,6.15
2023-02-21T09:02:40.565Z,6.35
2023-02-21T09:05:42.061Z,6.57
2023-02-21T09:08:43.714Z,6.81
2023-02-21T09:11:48.322Z,7.09
2023-02-21T09:14:49.796Z,7.22
2023-02-21T09:17:54.344Z,7.25
2023-02-21T09:20:57.427Z,7.32
2023-02-21T09:24:02.935Z,7.48
2023-02-21T09:27:06.078Z,7.60
2023-02-21T09:30:09.943Z,7.79
2023-02-21T09:33:12.394Z,7.77
2023-02-21T09:36:13.947Z,7.87
2023-02-21T09:39:16.162Z,7.91
2023-02-21T09:42:18.907Z,8.05
2023-02-21T09:45:22.408Z,8.13
2023-02-21T09:48:24.261Z,8.25
2023-02-21T09:51:26.558Z,8.36
2023-02-21T09:54:35.788Z,8.50
2023-02-21T09:57:37.775Z,8.70
2023-02-21T10:00:39.625Z,8.86
2023-02-21T10:03:51.882Z,8.99
2023-02-21T10:06:59.742Z,9.13
2023-02-21T10:10:10.222Z,9.28
2023-02-21T10:13:17.486Z,9.50
2023-02-21T10:16:32.077Z,9.69
2023-02-21T10:19:42.074Z,9.81
2023-02-21T10:22:47.537Z,9.93
2023-02-21T10:25:55.400Z,10.04
2023-02-21T10:28:57.236Z,10.17
2023-02-21T10:32:03.324Z,10.27
2023-02-21T10:35:05.235Z,10.34
2023-02-21T10:38:11.553Z,10.40
2023-02-21T10:41:13.349Z,10.50
2023-02-21T10:44:26.952Z,10.54
2023-02-21T10:47:58.766Z,10.63
2023-02-21T10:51:03.385Z,10.77
2023-02-21T10:54:25.345Z,10.83
2023-02-21T10:57:27.928Z,10.91
2023-02-21T11:00:38.876Z,11.04
2023-02-21T11:03:46.948Z,11.14
2023-02-21T11:06:51.549Z,11.25
2023-02-21T11:09:53.153Z,11.42
2023-02-21T11:13:10.237Z,11.56
2023-02-21T11:16:24.590Z,11.72
2023-02-21T11:19:26.019Z,11.83
2023-02-21T11:22:34.813Z,11.84
2023-02-21T11:25:40.466Z,11.88
2023-02-21T11:28:47.439Z,11.85
2023-02-21T11:31:48.997Z,11.96
2023-02-21T11:34:51.145Z,12.06
2023-02-21T11:38:05.565Z,12.20
2023-02-21T11:41:27.273Z,12.40
2023-02-21T11:44:38.182Z,12.50
2023-02-21T11:47:46.394Z,12.58
2023-02-21T11:50:53.499Z,12.63
2023-02-21T11:53:55.005Z,12.66
2023-02-21T11:57:06.671Z,12.70
2023-02-21T12:00:25.743Z,12.83
2023-02-21T12:03:37.469Z,12.84
2023-02-21T12:06:50.303Z,12.85
2023-02-21T12:10:03.854Z,13.06
2023-02-21T12:13:33.591Z,13.13
2023-02-21T12:16:53.649Z,13.10
2023-02-21T12:20:13.810Z,13.21
2023-02-21T12:23:41.313Z,13.24
2023-02-21T12:26:51.520Z,13.34
2023-02-21T12:30:11.927Z,13.33
2023-02-21T12:33:16.200Z,13.46
2023-02-21T12:36:30.563Z,13.53
2023-02-21T12:39:50.974Z,13.66
2023-02-21T12:43:30.192Z,13.81
2023-02-21T12:46:45.464Z,13.88
2023-02-21T12:49:46.941Z,13.91
2023-02-21T12:53:03.418Z,14.00
2023-02-21T12:56:13.950Z,14.11
2023-02-21T12:59:42.508Z,14.16
2023-02-21T13:03:01.242Z,14.28
2023-02-21T13:06:09.915Z,14.29
2023-02-21T13:09:20.131Z,14.28
2023-02-21T13:12:28.231Z,14.41
2023-02-21T13:15:31.110Z,14.47
2023-02-21T13:18:40.589Z,14.66
2023-02-21T13:21:54.340Z,14.65
2023-02-21T13:25:18.078Z,14.69
2023-02-21T13:28:25.614Z,14.68
2023-02-21T13:31:38.172Z,14.79
2023-02-21T13:34:45.692Z,14.88
2023-02-21T13:37:51.818Z,15.00
2023-02-21T13:41:03.145Z,15.07
2023-02-21T13:44:27.901Z,15.11
2023-02-21T13:47:55.136Z,15.09
2023-02-21T13:50:59.111Z,15.05
2023-02-21T13:54:24.863Z,15.04
2023-02-21T13:57:34.545Z,15.11
2023-02-21T14:00:36.022Z,15.23
2023-02-21T14:03:37.547Z,15.29
2023-02-21T14:06:40.170Z,15.35
2023-02-21T14:09:42.345Z,15.47
2023-02-21T14:12:45.294Z,15.52
2023-02-21T14:15:49.731Z,15.64
2023-02-21T14:19:07.379Z,15.69
2023-02-21T14:22:25.045Z,15.79
2023-02-21T14:25:27.743Z,15.80
2023-02-21T14:29:08.422Z,15.68
2023-02-21T14:32:10.000Z,15.54
2023-02-21T14:35:35.417Z,15.51
2023-02-21T14:38:42.325Z,15.55
2023-02-21T14:42:05.728Z,15.64
2023-02-21T14:45:10.019Z,15.79
2023-02-21T14:48:33.841Z,16.45
2023-02-21T14:52:19.719Z,16.30
2023-02-21T14:55:50.746Z,16.03
2023-02-21T14:59:39.932Z,15.93
2023-02-21T15:02:50.038Z,15.92
2023-02-21T15:06:03.939Z,15.89
2023-02-21T15:09:17.569Z,15.72
2023-02-21T15:12:19.062Z,15.67
2023-02-21T15:15:22.981Z,15.61
2023-02-21T15:18:29.742Z,15.55
2023-02-21T15:21:31.271Z,15.67
2023-02-21T15:24:32.728Z,15.75
2023-02-21T15:27:51.530Z,15.89
2023-02-21T15:31:00.441Z,16.09
2023-02-21T15:34:02.778Z,16.13
2023-02-21T15:37:16.382Z,16.15
2023-02-21T15:40:23.176Z,16.35
2023-02-21T15:43:44.840Z,16.37
2023-02-21T15:47:08.923Z,16.46
2023-02-21T15:50:18.725Z,17.25
2023-02-21T15:53:24.837Z,17.34
2023-02-21T15:56:28.509Z,16.72
2023-02-21T15:59:30.847Z,16.23
2023-02-21T16:02:32.559Z,16.04
2023-02-21T16:05:34.040Z,15.93
2023-02-21T16:08:39.196Z,15.77
2023-02-21T16:12:19.551Z,15.53
2023-02-21T16:15:25.959Z,15.37
2023-02-21T16:18:27.508Z,14.80
2023-02-21T16:21:29.828Z,14.08
2023-02-21T16:24:32.745Z,13.57
2023-02-21T16:27:34.331Z,13.29
2023-02-21T16:30:35.996Z,13.11
2023-02-21T16:33:37.512Z,12.86
2023-02-21T16:36:40.895Z,12.60
2023-02-21T16:39:42.806Z,12.31
2023-02-21T16:42:44.282Z,12.07
2023-02-21T16:45:48.482Z,11.77
2023-02-21T16:48:50.026Z,11.43
2023-02-21T16:51:51.494Z,11.14
2023-02-21T16:54:52.960Z,10.97
2023-02-21T16:57:59.214Z,10.69
2023-02-21T17:01:07.955Z,10.42
2023-02-21T17:04:22.960Z,10.10
2023-02-21T17:07:25.639Z,9.83
2023-02-21T17:10:27.185Z,9.61
2023-02-21T17:13:28.609Z,9.36
2023-02-21T17:16:30.667Z,9.12
2023-02-21T17:19:32.499Z,8.95
2023-02-21T17:22:34.522Z,8.80
2023-02-21T17:25:36.505Z,8.72
2023-02-21T17:28:39.361Z,8.56
2023-02-21T17:31:40.932Z,8.45
2023-02-21T17:34:43.206Z,8.32
2023-02-21T17:37:47.451Z,8.22
2023-02-21T17:40:49.510Z,8.07
2023-02-21T17:43:51.044Z,7.93
2023-02-21T17:46:55.832Z,7.77
2023-02-21T17:50:01.829Z,7.72
2023-02-21T17:53:04.374Z,7.76
2023-02-21T17:56:05.895Z,7.65
2023-02-21T17:59:07.447Z,7.62
2023-02-21T18:02:08.978Z,7.60
2023-02-21T18:05:10.573Z,7.46
2023-02-21T18:08:12.090Z,7.32
2023-02-21T18:11:16.350Z,7.13
2023-02-21T18:14:19.031Z,6.96
2023-02-21T18:17:20.677Z,6.86
2023-02-21T18:20:22.414Z,6.79
2023-02-21T18:23:23.849Z,6.83
2023-02-21T18:26:25.360Z,6.84
2023-02-21T18:29:26.935Z,6.79
2023-02-21T18:32:28.521Z,6.75
2023-02-21T18:35:30.182Z,6.65
2023-02-21T18:38:31.676Z,6.59
2023-02-21T18:41:33.470Z,6.46
2023-02-21T18:44:35.007Z,6.40
2023-02-21T18:47:36.466Z,6.26
2023-02-21T18:50:37.997Z,6.13
2023-02-21T18:53:40.052Z,6.00
2023-02-21T18:56:49.147Z,5.97
2023-02-21T18:59:50.723Z,5.92
2023-02-21T19:02:52.618Z,5.79
2023-02-21T19:05:54.092Z,5.61
2023-02-21T19:08:55.658Z,5.52
2023-02-21T19:11:57.161Z,5.50
2023-02-21T19:14:58.675Z,5.56
2023-02-21T19:18:00.351Z,5.57
2023-02-21T19:21:01.953Z,5.54
2023-02-21T19:24:04.253Z,5.44
2023-02-21T19:27:05.761Z,5.42
2023-02-21T19:30:07.929Z,5.41
2023-02-21T19:33:09.442Z,5.37
2023-02-21T19:36:11.890Z,5.35
2023-02-21T19:39:13.722Z,5.27
2023-02-21T19:42:15.220Z,5.15
2023-02-21T19:45:18.077Z,5.05
2023-02-21T19:48:21.197Z,4.95
2023-02-21T19:51:25.017Z,4.80
2023-02-21T19:54:32.639Z,4.74
2023-02-21T19:57:34.222Z,4.76
2023-02-21T20:00:38.503Z,4.89
2023-02-21T20:03:41.792Z,4.91
2023-02-21T20:06:43.233Z,4.84
2023-02-21T20:09:48.238Z,4.79
2023-02-21T20:12:49.801Z,4.76
2023-02-21T20:15:51.400Z,4.67
2023-02-21T20:18:54.255Z,4.55
2023-02-21T20:21:57.129Z,4.48
2023-02-21T20:24:58.640Z,4.36
2023-02-21T20:28:00.416Z,4.32
2023-02-21T20:31:01.998Z,4.27
2023-02-21T20:34:06.759Z,4.22
2023-02-21T20:37:10.995Z,4.24
2023-02-21T20:40:15.273Z,4.24
2023-02-21T20:43:16.755Z,4.08
2023-02-21T20:46:22.664Z,3.99
2023-02-21T20:49:24.137Z,3.94
2023-02-21T20:52:25.604Z,3.88
2023-02-21T20:55:27.148Z,3.84
2023-02-21T20:58:29.133Z,3.82
2023-02-21T21:01:31.325Z,3.79
2023-02-21T21:04:38.306Z,3.79
2023-02-21T21:07:41.343Z,3.73
2023-02-21T21:10:48.379Z,3.69
2023-02-21T21:13:50.104Z,3.58
2023-02-21T21:16:52.397Z,3.61
2023-02-21T21:19:54.816Z,3.53
2023-02-21T21:22:56.339Z,3.57
2023-02-21T21:26:02.022Z,3.54
2023-02-21T21:29:08.964Z,3.48
2023-02-21T21:32:12.559Z,3.47
2023-02-21T21:35:17.003Z,3.45
2023-02-21T21:38:18.901Z,3.50
2023-02-21T21:41:20.416Z,3.54
2023-02-21T21:44:23.145Z,3.51
2023-02-21T21:47:27.007Z,3.49
2023-02-21T21:50:28.457Z,3.55
2023-02-21T21:53:30.036Z,3.47
2023-02-21T21:56:31.794Z,3.34
2023-02-21T21:59:33.479Z,3.19
2023-02-21T22:02:34.974Z,3.17
2023-02-21T22:05:36.540Z,3.23
2023-02-21T22:08:38.912Z,3.18
2023-02-21T22:11:42.659Z,3.16
2023-02-21T22:14:44.125Z,3.06
2023-02-21T22:17:45.664Z,2.99
2023-02-21T22:20:50.023Z,2.99
2023-02-21T22:23:51.993Z,3.01
2023-02-21T22:26:55.328Z,3.00
2023-02-21T22:29:58.341Z,2.96
2023-02-21T22:32:59.898Z,2.97
2023-02-21T22:36:02.267Z,2.89
2023-02-21T22:39:11.011Z,2.79
2023-02-21T22:42:12.609Z,2.75
2023-02-21T22:45:14.056Z,2.80
2023-02-21T22:48:18.322Z,2.72
2023-02-21T22:51:27.872Z,2.73
2023-02-21T22:54:31.581Z,2.74
2023-02-21T22:57:33.368Z,2.80
2023-02-21T23:00:35.796Z,2.82
2023-02-21T23:03:40.713Z,2.79
2023-02-21T23:06:43.608Z,2.72
2023-02-21T23:09:45.394Z,2.65
2023-02-21T23:12:49.697Z,2.68
2023-02-21T23:15:53.690Z,2.70
2023-02-21T23:18:56.181Z,2.63
2023-02-21T23:21:58.017Z,2.64
2023-02-21T23:24:59.442Z,2.62
2023-02-21T23:28:06.998Z,2.63
2023-02-21T23:31:08.457Z,2.56
2023-02-21T23:34:11.941Z,2.45
2023-02-21T23:37:15.251Z,2.38
2023-02-21T23:40:19.828Z,2.26
2023-02-21T23:43:25.080Z,2.23
2023-02-21T23:46:29.123Z,2.27
2023-02-21T23:49:30.763Z,2.28
2023-02-21T23:52:32.260Z,2.27
2023-02-21T23:55:35.730Z,2.20
2023-02-21T23:58:38.996Z,2.16
